Collamer, Indiana
Current Conditions -  °F | °C
As of 6:55 PM on Sunday 23 Nov 2014 (Local Time) from KHHG Reporting Station
Moderate Rain Moderate Rain  
Wind Chill: 51°   Ceiling: 2300
Heat Index: 51°   Visibility: 7mi
Dew Point: 50°   Wind: 10mph
Humidity: 97%   Direction: 130°SE
Pressure: 29.42"   Gusts: 17mph
Location:  41.056°N, 85.6112°W
Report Text: KHHG 232355Z AUTO 13009G15KT 7SM RA BKN023 BKN030 OVC036 11/10 A2942 RMK AO2 P0014 60062 T01070102 10135 20102
Loading
Personal Weather Stations






























Interactive Weather Map New forecast layout! Learn more

10-Day Weather Forecast

Advertisements
Track Severe Weather on mobile